Αρχική σελίδα
METAR-TAF:

METAR-TAF

Αεροδρόμια :

Σούβα, Φίτζι

γεωγραφικό πλάτος: 18-03S, γεωγραφικό μήκος: 178-34E, υψόμετρο: 5 μ

Παρών καιρός

Η αναφορά έγινε 1 ώρα και 19 λεπτά πριν, στις 23:00 UTC
Ήπιος άνεμος
Θερμοκρασία 24°C
Υγρασία 100%
Πίεση 1014 hPa
Ορατότητα 10 χλμ και άνω
Λίγα νέφη σε ύψος 1200 πόδια
Αρκετά νέφη σε ύψος 1800 πόδια
Αρκετά νέφη σε ύψος 4500 πόδια

METAR: NFNA 142300Z 00000KT 9999 FEW012 BKN018 BKN045 24/24 Q1014

Χρόνος: 12:19 (00:19 UTC)

Πρόγνωση Καιρού

Η αναφορά έγινε 1 ώρα και 12 λεπτά πριν, στις 23:07 UTC
Η πρόγνωση ισχύει από τις 15 στις 00 UTC έως τις 15 στις 24 UTC
Άνεμος 3 kt από μεταβλητές κατευθύνσεις
Ορατότητα 10 χλμ και άνω
Λίγα νέφη σε ύψος 1200 πόδια
Αρκετά νέφη σε ύψος 1800 πόδια
Αρκετά νέφη σε ύψος 4500 πόδια

TAF: NFNA 142307Z 1500/1524 VRB03KT 9999 FEW012 BKN018 BKN045

Μετεωρολογικές αναφορές και προγνώσεις για περισσότερα από 4000 αεροδρόμια (δελτία METAR και TAF).

Οι διαθέσιμοι σταθμοί απεικονίζονται στο χάρτη με κίτρινες και κόκκινες κουκκίδες.

Μετακινήστε το ποντίκι πάνω από τις κουκκίδες για να δείτε το όνομα του σταθμού.

Στη συνέχεια, κάντε κλικ για να δείτε τις μετεωρολογικές αναφορές και τις προγνώσεις καιρού.

Για να αλλάξετε το χάρτη: κάντε κλικ στα πράσινα κουμπιά με τον μαύρο σταυρό για να ζουμάρετε, στο πράσινο κουμπί με την παύλα για να αφαιρέσετε το ζουμ ή στα πράσινα βέλη για να αντιπαραβάλλετε χάρτες.


METAR-TAF: